Eden Valley, Minnesota
Current Conditions -  °F | °C
As of 5:54 PM on Sunday 21 Dec 2014 (Local Time) from KPEX Reporting Station
Haze Haze  
Wind Chill: 24°   Ceiling: 100
Heat Index: 32°   Visibility: 0.75mi
Dew Point: 32°   Wind: 9mph
Humidity: 100%   Direction: 100°E
Pressure: 29.65"   Gusts: NA
Location:  45.33°N, 94.55°W
Report Text: KPEX 212354Z AUTO 10008KT 3/4SM BR OVC001 00/00 A2965 RMK AO2 T00000000 10000 21005
Loading
Personal Weather Stations






























Interactive Weather Map New forecast layout! Learn more

10-Day Weather Forecast

Advertisements
Track Severe Weather on mobile